Time;durP1;ratioP1;P1;durP2;ratioP2;P2;SDS_P1;SDS_P2;PMS_P1;PMS_P2;Temp;Humidity;BMP_temperature;BMP_pressure;BME280_temperature;BME280_humidity;BME280_pressure;Samples;Min_cycle;Max_cycle;Signal;HPM_P1;HPM_P2
2022/05/20 00:02:13;;;;;;;3.95;1.50;;;19.10;99.90;;;;;;4845959;29;20034;-86
2022/05/20 00:04:39;;;;;;;2.00;1.10;;;19.00;99.90;;;;;;4850872;29;20038;-85
2022/05/20 00:07:05;;;;;;;2.80;1.40;;;19.10;99.90;;;;;;4841799;29;20046;-85
2022/05/20 00:09:32;;;;;;;3.67;1.60;;;19.10;99.90;;;;;;4851724;29;20026;-85
2022/05/20 00:11:57;;;;;;;3.00;1.40;;;19.10;99.90;;;;;;4849625;29;20056;-85
2022/05/20 00:14:23;;;;;;;3.65;1.40;;;19.20;99.90;;;;;;4850026;29;20632;-85
2022/05/20 00:16:48;;;;;;;3.45;1.50;;;19.20;99.90;;;;;;4850928;29;20038;-84
2022/05/20 00:19:14;;;;;;;2.80;1.10;;;19.30;99.90;;;;;;4851147;29;20041;-85
2022/05/20 00:21:40;;;;;;;2.38;1.10;;;19.30;99.90;;;;;;4849340;29;20058;-85
2022/05/20 00:24:05;;;;;;;3.80;1.70;;;19.20;99.90;;;;;;4843741;29;20468;-85
2022/05/20 00:26:31;;;;;;;7.60;3.55;;;19.20;99.90;;;;;;4846674;29;20037;-85
2022/05/20 00:28:57;;;;;;;5.20;1.70;;;19.20;99.90;;;;;;4849636;29;20033;-85
2022/05/20 00:31:25;;;;;;;4.53;1.50;;;19.20;99.90;;;;;;4851043;29;20049;-85
2022/05/20 00:33:51;;;;;;;3.33;1.27;;;19.20;99.90;;;;;;4855147;29;20100;-85
2022/05/20 00:36:17;;;;;;;3.10;1.23;;;19.20;99.90;;;;;;4844696;29;20567;-85
2022/05/20 00:38:43;;;;;;;3.53;1.60;;;19.20;99.90;;;;;;4846290;29;20407;-86
2022/05/20 00:41:09;;;;;;;5.30;1.30;;;19.30;99.90;;;;;;4844026;29;20034;-86
2022/05/20 00:43:37;;;;;;;2.80;1.33;;;19.20;99.90;;;;;;4851921;29;20074;-85
2022/05/20 00:46:12;;;;;;;4.68;1.42;;;19.20;99.90;;;;;;4842845;29;20046;-85
2022/05/20 00:48:39;;;;;;;3.08;1.25;;;19.20;99.90;;;;;;4842782;29;20117;-85
2022/05/20 00:51:25;;;;;;;4.68;1.55;;;19.30;99.90;;;;;;4860548;29;20399;-86
2022/05/20 00:54:14;;;;;;;2.63;1.23;;;19.20;99.90;;;;;;4840014;29;20030;-86
2022/05/20 00:56:49;;;;;;;2.05;1.25;;;19.20;99.90;;;;;;4849709;29;20025;-85
2022/05/20 00:59:20;;;;;;;3.17;1.50;;;19.20;99.90;;;;;;4845485;29;20034;-85
2022/05/20 01:01:47;;;;;;;;;;;19.10;99.90;;;;;;4845707;29;20026;-85
2022/05/20 01:04:16;;;;;;;3.10;1.55;;;19.10;99.90;;;;;;4845003;29;19955;-85
2022/05/20 01:06:42;;;;;;;2.53;1.15;;;19.00;99.90;;;;;;4844805;29;20112;-85
2022/05/20 01:09:08;;;;;;;3.40;1.42;;;19.00;99.90;;;;;;4847854;29;20091;-84
2022/05/20 01:11:36;;;;;;;3.72;1.33;;;18.90;99.90;;;;;;4842323;29;20420;-85
2022/05/20 01:14:02;;;;;;;3.33;1.42;;;19.00;99.90;;;;;;4845694;29;20038;-86
2022/05/20 01:16:29;;;;;;;3.42;1.70;;;19.00;99.90;;;;;;4851294;29;20030;-85
2022/05/20 01:18:56;;;;;;;3.95;1.45;;;18.90;99.90;;;;;;4848913;29;20097;-85
2022/05/20 01:21:22;;;;;;;3.53;1.55;;;18.90;99.90;;;;;;4845389;29;20029;-85
2022/05/20 01:23:48;;;;;;;4.85;1.55;;;18.90;99.90;;;;;;4851995;29;20042;-85
2022/05/20 01:26:14;;;;;;;3.38;1.60;;;18.90;99.90;;;;;;4847513;29;20049;-85
2022/05/20 01:28:40;;;;;;;3.80;1.42;;;18.80;99.90;;;;;;4850684;29;20475;-85
2022/05/20 01:31:15;;;;;;;2.20;1.30;;;18.80;99.90;;;;;;4859814;29;20083;-85
2022/05/20 01:33:48;;;;;;;3.63;1.60;;;18.80;99.90;;;;;;4849018;29;20040;-85
2022/05/20 01:36:19;;;;;;;3.40;1.40;;;18.80;99.90;;;;;;4846362;29;20040;-85
2022/05/20 01:38:45;;;;;;;2.35;1.20;;;18.90;99.90;;;;;;4843368;29;20038;-85
2022/05/20 01:41:28;;;;;;;3.17;1.38;;;18.80;99.90;;;;;;4843143;29;20589;-85
2022/05/20 01:44:25;;;;;;;5.30;1.80;;;18.80;99.90;;;;;;4843250;29;20097;-85
2022/05/20 01:47:15;;;;;;;6.45;1.42;;;18.80;99.90;;;;;;4842359;29;20046;-86
2022/05/20 01:50:06;;;;;;;2.77;1.27;;;18.70;99.90;;;;;;4853115;29;20232;-85
2022/05/20 01:52:41;;;;;;;3.90;1.60;;;18.70;99.90;;;;;;4855312;29;20033;-85
2022/05/20 01:55:20;;;;;;;2.33;1.02;;;18.70;99.90;;;;;;4846358;29;20026;-85
2022/05/20 01:58:02;;;;;;;2.67;1.15;;;18.70;99.90;;;;;;4842449;29;20394;-85
2022/05/20 02:00:34;;;;;;;2.70;1.15;;;18.70;99.90;;;;;;4840986;29;20108;-85
2022/05/20 02:03:24;;;;;;;;;;;18.60;99.90;;;;;;4846527;29;20033;-85
2022/05/20 02:06:15;;;;;;;3.97;1.40;;;18.60;99.90;;;;;;4847936;29;20475;-85
2022/05/20 02:08:58;;;;;;;2.83;1.50;;;18.60;99.90;;;;;;4849389;29;20030;-85
2022/05/20 02:11:25;;;;;;;4.40;1.48;;;18.60;99.90;;;;;;4844083;29;20044;-85
2022/05/20 02:14:15;;;;;;;2.85;1.27;;;18.60;99.90;;;;;;4849868;29;20063;-85
2022/05/20 04:24:28;;;;;;;4.82;2.10;;;18.00;99.90;;;;;;4862545;29;20106;-91
2022/05/20 04:27:27;;;;;;;;;;;;;;;;;;;;;
2022/05/20 04:34:08;;;;;;;3.35;1.77;;;18.10;99.90;;;;;;4858827;29;20060;-90
2022/05/20 05:03:20;;;;;;;4.50;1.80;;;18.50;99.90;;;;;;4802736;29;20033;-88
2022/05/20 05:09:37;;;;;;;3.83;1.88;;;18.90;99.90;;;;;;4829160;29;20061;-90
2022/05/20 05:19:25;;;;;;;3.33;1.75;;;19.30;99.90;;;;;;4842052;29;20786;-90
2022/05/20 05:34:55;;;;;;;3.55;1.52;;;19.70;99.90;;;;;;4842311;29;20044;-91
2022/05/20 06:40:55;;;;;;;4.15;1.58;;;21.30;99.90;;;;;;4804513;29;20085;-91
2022/05/20 06:51:22;;;;;;;3.20;1.58;;;21.90;99.90;;;;;;4796579;30;20046;-90
2022/05/20 07:26:06;;;;;;;2.45;1.20;;;23.10;99.90;;;;;;3003044;27;20069;-91
2022/05/20 07:31:34;;;;;;;;;;;;;;;;;;;;;
2022/05/20 07:37:59;;;;;;;3.17;1.20;;;23.90;99.90;;;;;;4849893;29;20521;-91
2022/05/20 07:44:16;;;;;;;2.60;1.20;;;24.30;99.90;;;;;;4862767;29;20025;-90
2022/05/20 07:49:48;;;;;;;3.42;1.38;;;24.60;99.90;;;;;;4863754;29;20046;-91
2022/05/20 07:55:34;;;;;;;1.92;1.13;;;24.70;99.90;;;;;;4847139;29;20118;-91
2022/05/20 07:58:24;;;;;;;;;;;25.00;99.90;;;;;;4838375;23;20051;-90
2022/05/20 08:01:54;;;;;;;3.33;1.20;;;25.10;99.90;;;;;;4829810;29;19912;-91
2022/05/20 08:08:14;;;;;;;2.47;1.00;;;25.30;99.90;;;;;;4828149;29;20054;-90
2022/05/20 08:14:21;;;;;;;4.70;0.98;;;25.70;99.90;;;;;;4859072;29;20037;-91
2022/05/20 09:06:17;;;;;;;2.05;1.00;;;27.90;94.30;;;;;;4857088;29;20053;-89
2022/05/20 09:09:23;;;;;;;2.78;1.13;;;28.00;95.00;;;;;;4841488;29;20026;-90
2022/05/20 09:16:09;;;;;;;2.67;0.95;;;28.30;93.80;;;;;;4849058;29;20033;-90
2022/05/20 09:21:41;;;;;;;1.80;0.80;;;28.50;92.50;;;;;;4848330;29;20034;-90
2022/05/20 09:24:48;;;;;;;3.33;1.20;;;28.80;92.10;;;;;;4834704;29;20036;-90
2022/05/20 09:34:43;;;;;;;;;;;;;;;;;;;;;
2022/05/20 09:37:59;;;;;;;2.17;0.90;;;29.50;90.90;;;;;;4978531;24;20056;-89
2022/05/20 09:40:51;;;;;;;2.88;0.90;;;29.60;90.20;;;;;;4857800;29;20041;-89
2022/05/20 09:43:23;;;;;;;2.55;1.02;;;29.40;90.00;;;;;;4844397;29;20102;-89
2022/05/20 09:46:29;;;;;;;3.22;1.05;;;29.30;89.10;;;;;;4857672;29;20049;-89
2022/05/20 09:49:32;;;;;;;3.53;0.95;;;29.30;88.10;;;;;;4830135;29;20045;-90
2022/05/20 09:52:50;;;;;;;1.90;0.85;;;29.70;89.00;;;;;;4836056;29;20102;-90
2022/05/20 09:56:12;;;;;;;3.42;0.90;;;29.90;87.50;;;;;;4833674;29;20037;-91
2022/05/20 09:59:31;;;;;;;2.17;0.88;;;30.20;86.20;;;;;;4832531;29;20042;-91
2022/05/20 10:09:40;;;;;;;3.28;0.70;;;30.40;84.40;;;;;;4830380;29;20065;-91
2022/05/20 10:12:39;;;;;;;3.38;0.93;;;30.80;83.90;;;;;;4822018;29;20518;-91
2022/05/20 10:19:14;;;;;;;;;;;;;;;;;;;;;
2022/05/20 10:53:50;;;;;;;2.95;1.13;;;31.40;72.50;;;;;;4795794;29;20035;-92
2022/05/20 10:56:54;;;;;;;1.50;0.70;;;31.60;71.80;;;;;;4822578;29;20054;-92
2022/05/20 11:00:06;;;;;;;2.15;0.70;;;31.70;70.80;;;;;;4848590;29;20033;-92
2022/05/20 11:06:26;;;;;;;2.17;0.70;;;31.90;71.40;;;;;;4823572;29;20053;-92
2022/05/20 11:12:31;;;;;;;3.63;1.00;;;31.80;70.80;;;;;;4824839;29;20042;-92
2022/05/20 11:32:59;;;;;;;4.63;1.00;;;33.00;68.10;;;;;;4841801;29;20128;-92
2022/05/20 11:39:59;;;;;;;2.30;0.70;;;33.50;67.50;;;;;;4841269;24;20050;-93
2022/05/20 11:42:36;;;;;;;1.58;0.70;;;33.40;68.30;;;;;;4845448;29;20030;-94
2022/05/20 11:45:57;;;;;;;2.03;1.00;;;33.60;65.80;;;;;;4846772;29;20030;-93
2022/05/20 11:48:57;;;;;;;3.78;1.80;;;33.30;65.60;;;;;;4851105;24;20038;-94
2022/05/20 11:52:18;;;;;;;3.73;1.00;;;33.90;67.00;;;;;;4844594;29;20544;-93
2022/05/20 11:55:18;;;;;;;2.47;1.02;;;34.00;64.30;;;;;;4845307;29;20357;-93
2022/05/20 12:04:19;;;;;;;2.58;1.08;;;34.20;62.50;;;;;;4839389;29;20041;-91
2022/05/20 12:09:58;;;;;;;1.65;0.80;;;33.90;63.40;;;;;;4853610;23;20066;-93
2022/05/20 12:13:20;;;;;;;3.60;0.85;;;33.40;62.20;;;;;;4844310;29;20044;-93
2022/05/20 12:28:39;;;;;;;2.33;0.80;;;33.80;61.60;;;;;;4864623;23;20427;-95
2022/05/20 12:31:58;;;;;;;2.42;1.48;;;34.30;62.80;;;;;;4863345;29;20124;-94
2022/05/20 12:35:17;;;;;;;2.47;0.75;;;34.50;63.20;;;;;;4867907;29;20037;-94
2022/05/20 12:45:57;;;;;;;2.90;0.93;;;35.30;60.30;;;;;;4956531;23;20062;-93
2022/05/20 12:48:38;;;;;;;1.95;0.65;;;35.40;60.40;;;;;;4854194;29;20064;-92
2022/05/20 12:51:57;;;;;;;1.98;0.75;;;35.50;59.80;;;;;;4860444;29;20038;-92
2022/05/20 12:54:58;;;;;;;2.45;0.75;;;35.50;58.70;;;;;;4873402;29;20036;-92
2022/05/20 13:03:16;;;;;;;1.83;0.82;;;35.60;58.10;;;;;;5026592;23;20059;-90
2022/05/20 13:12:18;;;;;;;3.08;0.65;;;35.20;58.00;;;;;;4873694;23;20058;-92
2022/05/20 13:41:48;;;;;;;;;;;;;;;;;;;;;
2022/05/20 13:44:38;;;;;;;2.55;1.10;;;36.00;56.50;;;;;;4815917;29;20050;-91
2022/05/20 13:49:53;;;;;;;;;;;;;;;;;;;;;
2022/05/20 13:52:57;;;;;;;2.80;1.10;;;35.70;54.80;;;;;;4841834;29;20037;-90
2022/05/20 13:55:47;;;;;;;1.85;0.75;;;35.80;54.80;;;;;;4853041;29;20041;-89
2022/05/20 14:02:19;;;;;;;4.32;0.70;;;35.70;55.00;;;;;;4857766;29;20049;-89
2022/05/20 14:09:16;;;;;;;2.33;0.90;;;35.20;56.50;;;;;;4836698;29;20175;-89
2022/05/20 14:12:05;;;;;;;;;;;;;;;;;;;;;
2022/05/20 14:15:10;;;;;;;1.23;0.60;;;36.60;57.30;;;;;;4868812;29;20514;-89
2022/05/20 14:17:43;;;;;;;3.28;1.00;;;36.70;56.50;;;;;;4868742;29;20540;-89
2022/05/20 14:20:48;;;;;;;2.35;1.13;;;36.70;55.00;;;;;;4855740;29;20032;-90
2022/05/20 14:24:02;;;;;;;3.10;0.90;;;36.50;54.60;;;;;;4842398;29;20520;-90
2022/05/20 14:26:53;;;;;;;3.58;0.70;;;35.80;55.50;;;;;;4820769;29;20030;-90
2022/05/20 14:30:50;;;;;;;2.33;0.80;;;35.20;55.00;;;;;;4818908;29;20028;-90
2022/05/20 14:33:25;;;;;;;1.75;0.65;;;34.70;55.60;;;;;;4813702;29;20046;-90
2022/05/20 14:36:10;;;;;;;2.47;0.80;;;34.10;56.90;;;;;;4801755;29;20129;-90
2022/05/20 14:38:48;;;;;;;1.88;0.93;;;33.70;57.60;;;;;;4804521;29;21332;-89
2022/05/20 14:41:29;;;;;;;3.28;1.13;;;33.40;59.30;;;;;;4791558;29;20045;-89
2022/05/20 14:47:15;;;;;;;2.30;0.68;;;32.70;57.80;;;;;;4817046;29;20045;-88
2022/05/20 14:49:55;;;;;;;4.15;1.60;;;32.00;58.60;;;;;;4834024;29;20038;-89
2022/05/20 14:52:44;;;;;;;2.38;1.10;;;31.80;58.60;;;;;;4835160;29;20034;-88
2022/05/20 14:55:16;;;;;;;2.72;1.00;;;31.50;61.90;;;;;;4841670;29;20022;-88
2022/05/20 14:58:16;;;;;;;3.05;0.88;;;31.30;63.90;;;;;;4835574;29;20018;-88
2022/05/20 15:01:05;;;;;;;2.33;1.30;;;30.80;65.70;;;;;;4823851;29;20045;-88
2022/05/20 15:03:40;;;;;;;2.22;1.10;;;30.50;67.80;;;;;;4820177;29;20042;-88
2022/05/20 15:06:23;;;;;;;2.30;0.90;;;30.10;68.50;;;;;;4830292;29;20038;-88
2022/05/20 15:08:49;;;;;;;4.55;1.27;;;30.20;68.80;;;;;;4838270;29;20072;-89
2022/05/20 15:11:19;;;;;;;2.20;1.08;;;30.70;68.10;;;;;;4833455;29;20030;-88
2022/05/20 15:13:45;;;;;;;4.65;1.70;;;31.50;67.20;;;;;;4827389;29;20500;-88
2022/05/20 15:16:35;;;;;;;3.45;1.38;;;32.00;65.90;;;;;;4822930;29;20026;-88
2022/05/20 15:19:00;;;;;;;3.10;1.15;;;32.30;65.30;;;;;;4831373;29;20369;-87
2022/05/20 15:21:37;;;;;;;2.22;0.80;;;32.90;64.80;;;;;;4835432;29;20187;-89
2022/05/20 15:24:25;;;;;;;2.80;0.90;;;33.50;63.90;;;;;;4833499;29;20083;-88
2022/05/20 15:26:58;;;;;;;3.25;0.98;;;33.50;62.70;;;;;;4836801;29;20124;-89
2022/05/20 15:29:30;;;;;;;2.55;1.10;;;33.50;63.50;;;;;;4826871;29;20035;-88
2022/05/20 15:35:04;;;;;;;2.33;1.08;;;32.90;63.20;;;;;;4830916;29;20040;-88
2022/05/20 15:37:42;;;;;;;1.77;0.80;;;32.30;63.80;;;;;;4830380;29;20022;-88
2022/05/20 15:40:27;;;;;;;5.22;1.27;;;32.50;64.70;;;;;;4834549;29;20121;-88
2022/05/20 15:42:57;;;;;;;2.90;0.90;;;32.30;64.50;;;;;;4834212;29;20037;-87
2022/05/20 15:45:25;;;;;;;4.25;1.50;;;31.80;65.40;;;;;;4837011;29;20037;-88
2022/05/20 15:47:54;;;;;;;2.90;1.33;;;31.30;66.70;;;;;;4837665;29;20044;-90
2022/05/20 15:50:32;;;;;;;1.65;0.90;;;30.70;67.40;;;;;;4827702;29;20057;-88
2022/05/20 15:53:17;;;;;;;2.45;1.00;;;30.20;68.80;;;;;;4832627;29;20065;-88
2022/05/20 15:55:55;;;;;;;3.90;1.20;;;29.80;70.20;;;;;;4836123;29;20120;-87
2022/05/20 15:58:55;;;;;;;3.95;1.10;;;29.40;70.90;;;;;;4835028;29;20030;-88
2022/05/20 16:01:21;;;;;;;4.50;1.67;;;29.20;71.20;;;;;;4846709;29;20034;-88
2022/05/20 16:03:57;;;;;;;4.75;1.25;;;28.90;72.00;;;;;;4839780;29;20046;-88
2022/05/20 16:06:39;;;;;;;5.35;1.20;;;28.90;72.80;;;;;;4836233;29;20046;-88
2022/05/20 16:09:15;;;;;;;4.10;1.17;;;28.80;73.40;;;;;;4836653;29;20026;-88
2022/05/20 16:11:46;;;;;;;2.92;1.30;;;28.80;73.50;;;;;;4839382;29;20054;-88
2022/05/20 16:14:20;;;;;;;1.77;0.95;;;28.80;73.60;;;;;;4839789;29;20537;-88
2022/05/20 16:16:46;;;;;;;1.73;0.90;;;28.80;73.60;;;;;;4837926;29;20044;-89
2022/05/20 16:19:18;;;;;;;3.20;1.38;;;28.80;74.00;;;;;;4837813;29;20030;-87
2022/05/20 16:21:59;;;;;;;3.38;1.00;;;28.60;74.90;;;;;;4839694;29;20391;-88
2022/05/20 16:24:37;;;;;;;2.72;1.05;;;28.60;74.70;;;;;;4849833;29;20124;-87
2022/05/20 16:27:07;;;;;;;3.60;1.27;;;28.60;73.80;;;;;;4867035;29;20067;-88
2022/05/20 16:29:40;;;;;;;2.55;1.20;;;28.50;74.30;;;;;;4852678;29;20205;-90
2022/05/20 16:32:06;;;;;;;2.72;0.88;;;28.40;74.40;;;;;;4847267;29;20078;-90
2022/05/20 16:34:32;;;;;;;4.43;1.42;;;28.10;74.60;;;;;;4846803;29;20527;-89
2022/05/20 16:36:59;;;;;;;4.47;1.42;;;28.00;74.70;;;;;;4842937;29;20029;-90
2022/05/20 16:39:24;;;;;;;1.85;0.90;;;27.80;75.10;;;;;;4839856;29;20041;-89
2022/05/20 16:41:50;;;;;;;2.53;0.90;;;27.80;75.90;;;;;;4837845;29;20041;-87
2022/05/20 16:44:24;;;;;;;3.17;1.17;;;27.80;76.10;;;;;;4832617;29;20072;-87
2022/05/20 16:46:53;;;;;;;3.38;1.10;;;27.80;76.50;;;;;;4833060;29;20069;-88
2022/05/20 16:49:28;;;;;;;4.55;1.10;;;27.80;75.10;;;;;;4834440;29;20072;-88
2022/05/20 16:52:05;;;;;;;3.55;1.27;;;28.00;76.30;;;;;;4836272;29;20030;-88
2022/05/20 16:54:40;;;;;;;1.95;0.90;;;28.20;75.90;;;;;;4837161;29;20030;-88
2022/05/20 17:02:48;;;;;;;4.88;1.27;;;28.30;75.30;;;;;;4838272;29;20534;-88
2022/05/20 17:05:26;;;;;;;3.50;0.98;;;28.00;76.60;;;;;;4830771;29;20121;-87
2022/05/20 17:08:00;;;;;;;2.30;0.82;;;28.00;77.90;;;;;;4830853;29;20091;-90
2022/05/20 17:10:38;;;;;;;2.30;0.98;;;27.90;77.80;;;;;;4835915;29;20085;-88
2022/05/20 17:13:36;;;;;;;2.10;1.00;;;27.80;78.50;;;;;;4833703;29;20129;-87
2022/05/20 17:16:38;;;;;;;2.95;0.98;;;27.90;78.40;;;;;;4832295;29;20022;-90
2022/05/20 17:19:04;;;;;;;;;;;27.90;79.40;;;;;;4837343;29;20026;-89
2022/05/20 17:24:37;;;;;;;2.00;0.90;;;28.00;78.00;;;;;;4834196;29;20612;-88
2022/05/20 17:27:35;;;;;;;;;;;;;;;;;;;;;
2022/05/20 17:30:30;;;;;;;4.22;1.65;;;28.10;79.30;;;;;;4837544;29;20026;-89
2022/05/20 17:35:58;;;;;;;3.70;1.00;;;28.10;79.90;;;;;;4836491;29;20065;-90
2022/05/20 17:44:55;;;;;;;3.08;1.17;;;27.90;79.10;;;;;;4819922;29;20041;-89
2022/05/20 17:47:36;;;;;;;3.25;1.20;;;27.70;79.60;;;;;;4836101;29;20444;-89
2022/05/20 17:50:35;;;;;;;2.67;1.08;;;27.60;80.30;;;;;;4832689;29;20049;-89
2022/05/20 17:53:29;;;;;;;2.28;1.10;;;27.40;80.80;;;;;;4837201;29;20053;-88
2022/05/20 17:56:35;;;;;;;3.20;1.05;;;27.30;80.90;;;;;;4831148;29;20053;-90
2022/05/20 17:59:11;;;;;;;3.88;1.20;;;27.20;81.50;;;;;;4839265;29;20038;-89
2022/05/20 18:01:38;;;;;;;4.22;1.42;;;27.00;81.60;;;;;;4836056;29;20110;-89
2022/05/20 18:04:25;;;;;;;4.88;1.17;;;27.10;81.60;;;;;;4838467;29;20034;-88
2022/05/20 18:06:54;;;;;;;2.75;1.25;;;27.00;82.00;;;;;;4836739;29;20444;-88
2022/05/20 18:09:25;;;;;;;3.28;1.10;;;26.90;82.20;;;;;;4836627;29;20033;-88
2022/05/20 18:12:24;;;;;;;;;;;26.90;82.80;;;;;;4840857;29;20033;-88
2022/05/20 18:15:04;;;;;;;4.78;1.10;;;26.90;83.30;;;;;;4839773;29;19932;-88
2022/05/20 18:20:22;;;;;;;3.78;1.30;;;26.80;83.90;;;;;;4875389;23;20066;-90
2022/05/20 18:23:08;;;;;;;3.65;1.38;;;26.70;84.30;;;;;;4858208;29;20538;-91
2022/05/20 18:25:52;;;;;;;2.90;1.30;;;26.50;84.30;;;;;;4858483;29;20026;-90
2022/05/20 18:28:38;;;;;;;3.00;1.05;;;26.50;84.90;;;;;;4857635;29;20045;-88
2022/05/20 18:31:04;;;;;;;3.13;1.15;;;26.40;85.40;;;;;;4853539;29;20029;-88
2022/05/20 18:33:35;;;;;;;2.72;1.05;;;26.30;85.80;;;;;;4871814;23;20043;-94
2022/05/20 18:41:44;;;;;;;3.67;1.13;;;26.00;85.00;;;;;;4868819;29;20041;-93
2022/05/20 18:44:13;;;;;;;3.90;1.20;;;25.90;85.40;;;;;;4870571;29;20025;-93
2022/05/20 18:46:41;;;;;;;2.35;1.10;;;26.00;84.60;;;;;;4876029;29;20053;-93
2022/05/20 18:49:28;;;;;;;;;;;;;;;;;;;;;
2022/05/20 18:51:59;;;;;;;2.88;0.88;;;25.90;85.20;;;;;;4856859;29;20121;-93
2022/05/20 18:54:30;;;;;;;5.38;1.35;;;25.90;85.00;;;;;;4855050;29;20033;-93
2022/05/20 18:57:14;;;;;;;;;;;25.90;83.80;;;;;;4848682;29;20033;-93
2022/05/20 18:59:41;;;;;;;2.15;0.70;;;26.10;80.90;;;;;;4842963;29;19952;-93
2022/05/20 19:02:09;;;;;;;2.78;1.45;;;25.90;79.30;;;;;;4848592;29;20046;-94
2022/05/20 19:04:39;;;;;;;3.38;0.90;;;25.90;78.10;;;;;;4857342;29;20057;-93
2022/05/20 19:07:10;;;;;;;3.08;0.68;;;25.90;78.10;;;;;;4850386;29;20069;-93
2022/05/20 19:21:17;;;;;;;2.63;1.10;;;25.90;74.60;;;;;;2919533;23;20062;-89
2022/05/20 19:23:43;;;;;;;2.53;0.93;;;25.90;75.40;;;;;;4838702;29;20026;-92
2022/05/20 19:26:10;;;;;;;3.67;0.82;;;25.80;74.90;;;;;;4840861;29;20034;-91
2022/05/20 19:28:40;;;;;;;4.05;1.02;;;25.80;74.70;;;;;;4845514;29;20038;-90
2022/05/20 19:31:08;;;;;;;2.40;0.53;;;25.80;74.70;;;;;;4840791;29;20520;-91
2022/05/20 19:33:35;;;;;;;3.75;0.80;;;25.90;75.00;;;;;;4842986;29;20034;-90
2022/05/20 19:36:07;;;;;;;2.47;0.95;;;25.80;75.10;;;;;;4843423;29;20121;-91
2022/05/20 19:38:34;;;;;;;3.13;0.90;;;25.70;74.70;;;;;;4842963;29;20074;-91
2022/05/20 19:41:00;;;;;;;2.80;1.10;;;25.70;74.50;;;;;;4850211;29;20395;-90
2022/05/20 19:43:25;;;;;;;3.03;0.90;;;25.70;74.80;;;;;;4856830;29;20071;-91
2022/05/20 19:45:52;;;;;;;3.47;0.93;;;25.70;75.70;;;;;;4852003;29;20026;-91
2022/05/20 19:48:19;;;;;;;2.97;0.95;;;25.60;78.20;;;;;;4839895;29;20042;-91
2022/05/20 19:50:47;;;;;;;4.35;0.88;;;25.40;77.90;;;;;;4844255;29;20506;-90
2022/05/20 19:53:16;;;;;;;2.45;0.70;;;25.20;77.50;;;;;;4834691;29;20040;-92
2022/05/20 19:55:42;;;;;;;2.85;1.10;;;25.20;78.20;;;;;;4847635;29;20026;-91
2022/05/20 20:00:53;;;;;;;2.75;1.02;;;25.00;81.20;;;;;;4842178;29;20048;-91
2022/05/20 20:03:26;;;;;;;2.58;1.10;;;24.80;82.70;;;;;;4842698;29;20040;-91
2022/05/20 20:05:53;;;;;;;1.40;0.60;;;24.70;83.50;;;;;;4843228;29;20116;-91
2022/05/20 20:08:19;;;;;;;2.92;1.13;;;24.40;84.10;;;;;;4843165;29;20022;-91
2022/05/20 20:10:47;;;;;;;1.88;1.02;;;24.30;85.10;;;;;;4842735;29;20374;-91
2022/05/20 20:13:16;;;;;;;2.25;0.80;;;24.20;86.20;;;;;;4837654;29;20110;-89
2022/05/20 20:15:43;;;;;;;3.58;1.40;;;24.10;86.90;;;;;;4835916;29;20522;-91
2022/05/20 20:18:10;;;;;;;3.88;1.15;;;24.00;87.30;;;;;;4838461;29;20026;-91
2022/05/20 20:20:36;;;;;;;1.98;0.73;;;23.80;88.30;;;;;;4851263;29;20402;-90
2022/05/20 20:26:04;;;;;;;3.83;1.20;;;23.70;90.10;;;;;;4871243;29;20016;-91
2022/05/20 20:28:42;;;;;;;2.83;1.00;;;23.60;90.30;;;;;;4860976;29;20041;-90
2022/05/20 20:31:14;;;;;;;2.20;0.95;;;23.50;90.60;;;;;;4864557;29;20060;-89
2022/05/20 20:33:41;;;;;;;1.92;0.80;;;23.30;91.00;;;;;;4855133;29;20085;-89
2022/05/20 20:36:07;;;;;;;2.47;1.20;;;23.30;91.60;;;;;;4842102;29;20034;-91
2022/05/20 20:38:33;;;;;;;2.45;0.95;;;23.10;92.00;;;;;;4829670;29;20037;-91
2022/05/20 20:40:59;;;;;;;2.72;1.00;;;23.10;92.50;;;;;;4849172;29;20060;-92
2022/05/20 20:43:25;;;;;;;2.67;1.35;;;22.90;93.00;;;;;;4850866;29;20127;-91
2022/05/20 20:45:51;;;;;;;4.18;1.30;;;22.80;93.50;;;;;;4852607;29;20030;-91
2022/05/20 20:48:18;;;;;;;3.13;1.33;;;22.70;94.00;;;;;;4848777;29;20441;-91
2022/05/20 20:50:44;;;;;;;2.95;1.25;;;22.60;94.40;;;;;;4848211;29;20094;-91
2022/05/20 20:53:18;;;;;;;3.00;1.52;;;22.50;94.70;;;;;;4830877;29;20026;-91
2022/05/20 20:55:45;;;;;;;3.05;1.58;;;22.40;95.10;;;;;;4831109;29;20023;-91
2022/05/20 20:58:12;;;;;;;2.80;1.38;;;22.30;96.40;;;;;;4829563;29;20504;-92
2022/05/20 21:00:40;;;;;;;9.38;1.60;;;22.10;97.50;;;;;;4865276;29;20048;-91
2022/05/20 21:03:09;;;;;;;5.32;1.80;;;22.00;98.50;;;;;;4862454;29;20034;-92
2022/05/20 21:05:36;;;;;;;5.60;1.80;;;21.90;99.70;;;;;;4840726;29;20034;-91
2022/05/20 21:08:02;;;;;;;4.32;1.40;;;21.60;99.90;;;;;;4840748;29;20050;-92
2022/05/20 21:10:27;;;;;;;2.83;1.77;;;21.30;99.90;;;;;;4855678;29;20040;-92
2022/05/20 21:12:54;;;;;;;3.03;1.30;;;21.20;99.90;;;;;;4848744;29;20026;-92
2022/05/20 21:15:20;;;;;;;3.28;1.40;;;21.10;99.90;;;;;;4860617;29;20061;-91
2022/05/20 21:17:46;;;;;;;4.03;1.50;;;21.00;99.90;;;;;;4864129;29;20042;-92
2022/05/20 21:20:16;;;;;;;3.75;1.58;;;21.10;99.90;;;;;;4857367;29;20061;-92
2022/05/20 21:22:42;;;;;;;3.53;1.50;;;20.80;99.90;;;;;;4828981;29;20130;-91
2022/05/20 21:25:08;;;;;;;5.18;1.80;;;20.70;99.90;;;;;;4830046;29;20092;-91
2022/05/20 21:27:33;;;;;;;3.53;1.83;;;20.70;99.90;;;;;;4855278;29;20034;-90
2022/05/20 21:30:02;;;;;;;5.05;1.58;;;20.50;99.90;;;;;;4866304;29;20040;-91
2022/05/20 21:32:28;;;;;;;4.63;1.80;;;20.40;99.90;;;;;;4833580;29;20034;-91
2022/05/20 21:34:54;;;;;;;3.65;1.60;;;20.30;99.90;;;;;;4847908;29;20514;-90
2022/05/20 21:37:20;;;;;;;5.40;1.80;;;20.20;99.90;;;;;;4861127;29;20022;-91
2022/05/20 21:39:45;;;;;;;5.18;1.60;;;20.10;99.90;;;;;;4862350;29;20050;-90
2022/05/20 21:42:11;;;;;;;2.92;1.35;;;19.90;99.90;;;;;;4846543;29;20101;-91
2022/05/20 21:44:37;;;;;;;3.55;1.35;;;19.90;99.90;;;;;;4851847;29;20019;-91
2022/05/20 21:47:03;;;;;;;5.93;1.63;;;19.90;99.90;;;;;;4848865;29;20022;-91
2022/05/20 21:49:32;;;;;;;2.92;1.23;;;19.80;99.90;;;;;;4839206;29;20026;-91
2022/05/20 21:52:00;;;;;;;3.80;1.33;;;19.80;99.90;;;;;;4839876;29;20034;-91
2022/05/20 21:54:29;;;;;;;2.53;1.25;;;19.80;99.90;;;;;;4849568;29;20028;-91
2022/05/20 21:56:55;;;;;;;2.05;1.13;;;19.80;99.90;;;;;;4859047;29;20046;-91
2022/05/20 21:59:21;;;;;;;3.40;1.40;;;19.80;99.90;;;;;;4839656;29;20030;-91
2022/05/20 22:10:03;;;;;;;3.55;1.33;;;19.80;99.90;;;;;;4850133;29;20120;-91
2022/05/20 22:12:31;;;;;;;3.47;1.20;;;20.00;99.90;;;;;;4857511;29;20034;-91
2022/05/20 22:14:56;;;;;;;3.58;1.63;;;19.90;99.90;;;;;;4832204;29;20029;-91
2022/05/20 22:17:25;;;;;;;3.28;1.40;;;19.90;99.90;;;;;;4828645;29;20030;-91
2022/05/20 22:19:51;;;;;;;2.00;1.02;;;20.00;99.90;;;;;;4853260;29;20022;-91
2022/05/20 22:22:20;;;;;;;2.65;1.10;;;19.90;99.90;;;;;;4850730;29;20042;-91
2022/05/20 22:24:46;;;;;;;2.78;1.08;;;19.80;99.90;;;;;;4861185;29;20021;-91
2022/05/20 22:27:13;;;;;;;2.22;1.15;;;19.80;99.90;;;;;;4854779;29;20030;-92
2022/05/20 22:29:40;;;;;;;2.10;1.00;;;19.80;99.90;;;;;;4833581;29;20495;-91
2022/05/20 22:32:09;;;;;;;3.08;1.20;;;19.80;99.90;;;;;;4826710;29;20030;-90
2022/05/20 22:34:36;;;;;;;4.10;1.38;;;19.70;99.90;;;;;;4848475;29;20021;-91
2022/05/20 22:37:03;;;;;;;3.90;1.50;;;19.60;99.90;;;;;;4851187;29;20056;-91
2022/05/20 22:39:29;;;;;;;2.15;1.10;;;19.70;99.90;;;;;;4852601;29;20073;-91
2022/05/20 22:41:55;;;;;;;2.42;1.10;;;19.70;99.90;;;;;;4860121;29;20097;-91
2022/05/20 22:44:21;;;;;;;2.53;1.33;;;19.60;99.90;;;;;;4849842;29;20079;-91
2022/05/20 22:46:47;;;;;;;2.75;1.25;;;19.60;99.90;;;;;;4851153;29;20041;-89
2022/05/20 22:49:13;;;;;;;2.67;1.38;;;19.70;99.90;;;;;;4845621;29;20034;-89
2022/05/20 22:51:39;;;;;;;1.75;0.90;;;19.60;99.90;;;;;;4836662;29;20037;-89
2022/05/20 22:54:05;;;;;;;2.42;1.20;;;19.60;99.90;;;;;;4847394;29;20041;-89
2022/05/20 22:56:30;;;;;;;2.10;1.08;;;19.60;99.90;;;;;;4835488;29;20055;-90
2022/05/20 22:58:59;;;;;;;3.95;1.10;;;19.50;99.90;;;;;;4829988;29;20130;-89
2022/05/20 23:01:28;;;;;;;2.65;1.38;;;19.50;99.90;;;;;;4841267;29;20030;-89
2022/05/20 23:03:54;;;;;;;3.15;1.35;;;19.50;99.90;;;;;;4827699;29;20035;-89
2022/05/20 23:06:21;;;;;;;1.95;0.93;;;19.50;99.90;;;;;;4828446;29;20049;-89
2022/05/20 23:08:48;;;;;;;1.90;0.90;;;19.40;99.90;;;;;;4846542;29;20033;-88
2022/05/20 23:11:18;;;;;;;3.20;0.85;;;19.30;99.90;;;;;;4853827;29;20055;-88
2022/05/20 23:13:44;;;;;;;2.00;1.20;;;19.30;99.90;;;;;;4845643;29;20031;-88
2022/05/20 23:16:13;;;;;;;2.45;1.20;;;19.30;99.90;;;;;;4830560;29;20054;-89
2022/05/20 23:18:40;;;;;;;3.45;0.95;;;19.20;99.90;;;;;;4836588;29;20030;-90
2022/05/20 23:21:06;;;;;;;3.63;0.88;;;19.20;99.90;;;;;;4847437;29;20034;-89
2022/05/20 23:23:33;;;;;;;5.97;1.10;;;19.10;99.90;;;;;;4849313;29;20057;-89
2022/05/20 23:26:06;;;;;;;1.80;1.00;;;19.10;99.90;;;;;;4838353;29;20037;-89
2022/05/20 23:28:34;;;;;;;2.10;1.17;;;19.10;99.90;;;;;;4843354;29;20034;-89
2022/05/20 23:31:11;;;;;;;2.05;1.00;;;19.10;99.90;;;;;;4838433;29;20034;-89